首页
METAR-TAF:

METAR-TAF

机场 :

福島機場

郡山, 日本

纬度: 37-24N, 经度: 140-23E, 海拔: 372米

当前天气观测

该预报发布于32分钟前的11:00 UTC
风速3节,风向东南,在东转东南之间变化
温度 24°C
湿度 83%
气压 1009 hPa
能见度10公里或以上
少量云层高于300英尺
少量云层高于2000英尺, 积雨云.
散云层高于5000英尺
多云层高于14000英尺

METAR: RJSF 231100Z 14003KT 110V190 9999 FEW003 FEW020CB SCT050 BKN140 24/21 Q1009

时间: 20:32 (11:32 UTC)

预报

该预报发布于6小时和27分钟前的05:05 UTC
预报有效从23日的 06点(UTC)到 24日的 12点(UTC)
风速6节,风向北转西北
能見度: 8000
少量云层高于1500英尺
多云层高于3000英尺
小阵雨
短暂存在
从 23日的 06点(UTC)到 23日的 12点(UTC)
能見度: 4000
少量云层高于1000英尺
多云层高于2000英尺
少量云层高于2000英尺, 积雨云.
雷暴, 雨, 轻雾
成为
从 23日的 12点(UTC)到 23日的 14点(UTC)
风速4节,风向东南
成为
从 23日的 21点(UTC)到 24日的 00点(UTC)
风速12节,风向西北

TAF: RJSF 230505Z 2306/2412 34006KT 8000 -SHRA FEW015 BKN030 TEMPO 2306/2312 4000 TSRA BR FEW010 BKN020 FEW020CB BECMG 2312/2314 14004KT BECMG 2321/2400 32012KT

超过4000个机场的气象观测和天气预报(METAR&TAF报告)。

可查询的气象台以黄色和红色小点在地图上表示。

将鼠标移到小点上方,可查看气象台名称。

然后点击查看天气观测和预报。

如需切换地图:点击带黑十字的绿色按钮放大地图;点击带横线的绿色按钮缩小地图;或者点击绿色箭头查看邻近地区的地图。


METAR-TAF: